sensor_id;sensor_type;location;lat;lon;timestamp;P1;durP1;ratioP1;P2;durP2;ratioP2
31336;SDS011;22846;42.654;23.314;2022-09-14T00:01:16;4.35;;;2.40;;
31336;SDS011;22846;42.654;23.314;2022-09-14T00:03:43;3.53;;;2.80;;
31336;SDS011;22846;42.654;23.314;2022-09-14T00:06:11;2.38;;;2.10;;
31336;SDS011;22846;42.654;23.314;2022-09-14T00:08:39;4.88;;;2.63;;
31336;SDS011;22846;42.654;23.314;2022-09-14T00:11:11;3.17;;;2.50;;
31336;SDS011;22846;42.654;23.314;2022-09-14T00:13:39;3.03;;;2.47;;
31336;SDS011;22846;42.654;23.314;2022-09-14T00:16:12;3.13;;;2.47;;
31336;SDS011;22846;42.654;23.314;2022-09-14T00:18:49;3.50;;;2.40;;
31336;SDS011;22846;42.654;23.314;2022-09-14T00:21:19;3.15;;;2.55;;
31336;SDS011;22846;42.654;23.314;2022-09-14T00:23:45;2.50;;;2.25;;
31336;SDS011;22846;42.654;23.314;2022-09-14T00:26:11;3.67;;;2.45;;
31336;SDS011;22846;42.654;23.314;2022-09-14T00:28:40;3.78;;;2.50;;
31336;SDS011;22846;42.654;23.314;2022-09-14T00:31:07;2.60;;;2.22;;
31336;SDS011;22846;42.654;23.314;2022-09-14T00:33:33;3.45;;;2.28;;
31336;SDS011;22846;42.654;23.314;2022-09-14T00:36:18;4.22;;;2.58;;
31336;SDS011;22846;42.654;23.314;2022-09-14T00:38:46;3.47;;;2.50;;
31336;SDS011;22846;42.654;23.314;2022-09-14T00:41:14;3.90;;;2.67;;
31336;SDS011;22846;42.654;23.314;2022-09-14T00:43:56;6.25;;;2.50;;
31336;SDS011;22846;42.654;23.314;2022-09-14T00:46:29;3.83;;;2.50;;
31336;SDS011;22846;42.654;23.314;2022-09-14T00:49:03;2.50;;;2.30;;
31336;SDS011;22846;42.654;23.314;2022-09-14T00:51:33;2.72;;;2.45;;
31336;SDS011;22846;42.654;23.314;2022-09-14T00:54:02;3.47;;;2.65;;
31336;SDS011;22846;42.654;23.314;2022-09-14T00:56:28;2.83;;;1.95;;
31336;SDS011;22846;42.654;23.314;2022-09-14T00:58:55;2.97;;;2.22;;
31336;SDS011;22846;42.654;23.314;2022-09-14T01:01:22;2.58;;;2.25;;
31336;SDS011;22846;42.654;23.314;2022-09-14T01:03:49;3.03;;;2.30;;
31336;SDS011;22846;42.654;23.314;2022-09-14T01:20:40;3.53;;;2.30;;
31336;SDS011;22846;42.654;23.314;2022-09-14T01:23:24;2.83;;;2.30;;
31336;SDS011;22846;42.654;23.314;2022-09-14T01:26:12;3.63;;;2.50;;
31336;SDS011;22846;42.654;23.314;2022-09-14T01:31:51;2.78;;;2.53;;
31336;SDS011;22846;42.654;23.314;2022-09-14T01:34:29;4.57;;;2.40;;
31336;SDS011;22846;42.654;23.314;2022-09-14T01:37:12;3.88;;;2.38;;
31336;SDS011;22846;42.654;23.314;2022-09-14T01:39:44;2.40;;;2.20;;
31336;SDS011;22846;42.654;23.314;2022-09-14T01:42:14;2.83;;;2.15;;
31336;SDS011;22846;42.654;23.314;2022-09-14T01:44:44;2.13;;;1.90;;
31336;SDS011;22846;42.654;23.314;2022-09-14T01:47:56;3.10;;;2.53;;
31336;SDS011;22846;42.654;23.314;2022-09-14T01:50:28;2.70;;;2.20;;
31336;SDS011;22846;42.654;23.314;2022-09-14T01:55:41;2.33;;;1.98;;
31336;SDS011;22846;42.654;23.314;2022-09-14T01:58:27;3.40;;;2.50;;
31336;SDS011;22846;42.654;23.314;2022-09-14T02:01:01;4.07;;;2.15;;
31336;SDS011;22846;42.654;23.314;2022-09-14T02:03:30;2.60;;;2.08;;
31336;SDS011;22846;42.654;23.314;2022-09-14T02:06:07;3.03;;;2.25;;
31336;SDS011;22846;42.654;23.314;2022-09-14T02:08:49;2.20;;;1.98;;
31336;SDS011;22846;42.654;23.314;2022-09-14T02:11:15;2.20;;;1.98;;
31336;SDS011;22846;42.654;23.314;2022-09-14T02:13:41;3.28;;;1.90;;
31336;SDS011;22846;42.654;23.314;2022-09-14T02:16:06;2.75;;;2.28;;
31336;SDS011;22846;42.654;23.314;2022-09-14T02:18:32;2.38;;;2.00;;
31336;SDS011;22846;42.654;23.314;2022-09-14T02:20:59;2.85;;;2.30;;
31336;SDS011;22846;42.654;23.314;2022-09-14T02:23:28;3.72;;;2.15;;
31336;SDS011;22846;42.654;23.314;2022-09-14T02:25:54;2.35;;;2.00;;
31336;SDS011;22846;42.654;23.314;2022-09-14T02:28:20;3.45;;;2.13;;
31336;SDS011;22846;42.654;23.314;2022-09-14T02:30:53;2.28;;;2.08;;
31336;SDS011;22846;42.654;23.314;2022-09-14T02:33:30;2.33;;;2.13;;
31336;SDS011;22846;42.654;23.314;2022-09-14T02:36:06;2.08;;;1.83;;
31336;SDS011;22846;42.654;23.314;2022-09-14T02:38:46;2.53;;;1.85;;
31336;SDS011;22846;42.654;23.314;2022-09-14T02:47:14;2.08;;;1.80;;
31336;SDS011;22846;42.654;23.314;2022-09-14T02:52:47;3.13;;;1.83;;
31336;SDS011;22846;42.654;23.314;2022-09-14T02:55:34;2.70;;;1.90;;
31336;SDS011;22846;42.654;23.314;2022-09-14T02:58:05;3.38;;;2.00;;
31336;SDS011;22846;42.654;23.314;2022-09-14T03:00:33;2.53;;;1.88;;
31336;SDS011;22846;42.654;23.314;2022-09-14T03:03:01;2.42;;;1.95;;
31336;SDS011;22846;42.654;23.314;2022-09-14T03:05:28;3.30;;;2.22;;
31336;SDS011;22846;42.654;23.314;2022-09-14T03:07:53;3.45;;;2.00;;
31336;SDS011;22846;42.654;23.314;2022-09-14T03:10:19;2.20;;;1.80;;
31336;SDS011;22846;42.654;23.314;2022-09-14T03:12:45;2.10;;;1.90;;
31336;SDS011;22846;42.654;23.314;2022-09-14T03:15:10;2.38;;;2.17;;
31336;SDS011;22846;42.654;23.314;2022-09-14T03:17:36;2.05;;;1.88;;
31336;SDS011;22846;42.654;23.314;2022-09-14T03:20:01;3.63;;;2.00;;
31336;SDS011;22846;42.654;23.314;2022-09-14T03:22:28;2.40;;;1.80;;
31336;SDS011;22846;42.654;23.314;2022-09-14T03:24:53;2.88;;;2.00;;
31336;SDS011;22846;42.654;23.314;2022-09-14T03:27:19;2.55;;;2.08;;
31336;SDS011;22846;42.654;23.314;2022-09-14T03:29:44;3.28;;;2.03;;
31336;SDS011;22846;42.654;23.314;2022-09-14T03:32:10;2.53;;;1.83;;
31336;SDS011;22846;42.654;23.314;2022-09-14T03:34:36;2.28;;;1.80;;
31336;SDS011;22846;42.654;23.314;2022-09-14T03:37:02;3.55;;;2.17;;
31336;SDS011;22846;42.654;23.314;2022-09-14T03:39:27;4.05;;;2.00;;
31336;SDS011;22846;42.654;23.314;2022-09-14T03:41:52;4.13;;;2.30;;
31336;SDS011;22846;42.654;23.314;2022-09-14T03:44:18;2.55;;;1.90;;
31336;SDS011;22846;42.654;23.314;2022-09-14T03:46:44;2.92;;;1.90;;
31336;SDS011;22846;42.654;23.314;2022-09-14T03:49:09;3.50;;;2.50;;
31336;SDS011;22846;42.654;23.314;2022-09-14T03:51:35;2.58;;;2.20;;
31336;SDS011;22846;42.654;23.314;2022-09-14T03:54:00;8.23;;;2.10;;
31336;SDS011;22846;42.654;23.314;2022-09-14T03:56:25;3.70;;;2.50;;
31336;SDS011;22846;42.654;23.314;2022-09-14T03:58:51;12.45;;;6.60;;
31336;SDS011;22846;42.654;23.314;2022-09-14T04:01:17;11.70;;;5.72;;
31336;SDS011;22846;42.654;23.314;2022-09-14T04:03:44;11.18;;;6.35;;
31336;SDS011;22846;42.654;23.314;2022-09-14T04:06:11;8.30;;;6.55;;
31336;SDS011;22846;42.654;23.314;2022-09-14T04:08:38;9.63;;;7.75;;
31336;SDS011;22846;42.654;23.314;2022-09-14T04:11:08;7.95;;;5.95;;
31336;SDS011;22846;42.654;23.314;2022-09-14T04:13:35;9.60;;;6.07;;
31336;SDS011;22846;42.654;23.314;2022-09-14T04:16:01;12.27;;;5.60;;
31336;SDS011;22846;42.654;23.314;2022-09-14T04:18:27;10.38;;;4.97;;
31336;SDS011;22846;42.654;23.314;2022-09-14T04:20:53;9.95;;;4.68;;
31336;SDS011;22846;42.654;23.314;2022-09-14T04:23:22;7.55;;;3.50;;
31336;SDS011;22846;42.654;23.314;2022-09-14T04:25:48;8.63;;;2.90;;
31336;SDS011;22846;42.654;23.314;2022-09-14T04:28:14;10.85;;;4.57;;
31336;SDS011;22846;42.654;23.314;2022-09-14T04:30:39;19.27;;;4.50;;
31336;SDS011;22846;42.654;23.314;2022-09-14T04:33:05;16.17;;;3.97;;
31336;SDS011;22846;42.654;23.314;2022-09-14T04:35:30;8.80;;;3.45;;
31336;SDS011;22846;42.654;23.314;2022-09-14T04:37:55;8.45;;;3.40;;
31336;SDS011;22846;42.654;23.314;2022-09-14T04:40:21;7.22;;;2.92;;
31336;SDS011;22846;42.654;23.314;2022-09-14T04:42:46;4.90;;;2.47;;
31336;SDS011;22846;42.654;23.314;2022-09-14T04:45:12;5.40;;;2.45;;
31336;SDS011;22846;42.654;23.314;2022-09-14T04:47:37;4.10;;;2.33;;
31336;SDS011;22846;42.654;23.314;2022-09-14T04:50:03;7.57;;;2.00;;
31336;SDS011;22846;42.654;23.314;2022-09-14T04:52:29;7.13;;;2.25;;
31336;SDS011;22846;42.654;23.314;2022-09-14T04:54:54;5.68;;;2.08;;
31336;SDS011;22846;42.654;23.314;2022-09-14T04:57:20;5.18;;;2.08;;
31336;SDS011;22846;42.654;23.314;2022-09-14T04:59:45;3.15;;;1.70;;
31336;SDS011;22846;42.654;23.314;2022-09-14T05:02:11;5.30;;;2.28;;
31336;SDS011;22846;42.654;23.314;2022-09-14T05:04:36;4.70;;;1.67;;
31336;SDS011;22846;42.654;23.314;2022-09-14T05:07:01;5.47;;;1.80;;
31336;SDS011;22846;42.654;23.314;2022-09-14T05:09:27;2.38;;;1.65;;
31336;SDS011;22846;42.654;23.314;2022-09-14T05:11:52;3.15;;;1.63;;
31336;SDS011;22846;42.654;23.314;2022-09-14T05:14:18;8.23;;;1.98;;
31336;SDS011;22846;42.654;23.314;2022-09-14T05:16:43;7.05;;;1.88;;
31336;SDS011;22846;42.654;23.314;2022-09-14T05:19:13;4.03;;;1.75;;
31336;SDS011;22846;42.654;23.314;2022-09-14T05:21:41;5.55;;;1.80;;
31336;SDS011;22846;42.654;23.314;2022-09-14T05:24:14;3.88;;;1.55;;
31336;SDS011;22846;42.654;23.314;2022-09-14T05:26:41;3.78;;;1.85;;
31336;SDS011;22846;42.654;23.314;2022-09-14T05:29:12;5.60;;;2.20;;
31336;SDS011;22846;42.654;23.314;2022-09-14T05:31:38;2.72;;;1.40;;
31336;SDS011;22846;42.654;23.314;2022-09-14T05:34:04;2.30;;;1.55;;
31336;SDS011;22846;42.654;23.314;2022-09-14T05:36:29;2.83;;;1.50;;
31336;SDS011;22846;42.654;23.314;2022-09-14T05:38:55;4.35;;;1.88;;
31336;SDS011;22846;42.654;23.314;2022-09-14T05:41:22;1.77;;;1.20;;
31336;SDS011;22846;42.654;23.314;2022-09-14T05:43:47;8.68;;;1.92;;
31336;SDS011;22846;42.654;23.314;2022-09-14T05:46:14;7.25;;;1.90;;
31336;SDS011;22846;42.654;23.314;2022-09-14T05:48:41;3.92;;;1.95;;
31336;SDS011;22846;42.654;23.314;2022-09-14T05:51:09;3.20;;;1.67;;
31336;SDS011;22846;42.654;23.314;2022-09-14T05:53:40;5.00;;;2.80;;
31336;SDS011;22846;42.654;23.314;2022-09-14T05:56:07;107.97;;;73.43;;
31336;SDS011;22846;42.654;23.314;2022-09-14T05:58:35;66.93;;;46.00;;
31336;SDS011;22846;42.654;23.314;2022-09-14T06:01:07;148.15;;;101.38;;
31336;SDS011;22846;42.654;23.314;2022-09-14T06:03:34;65.65;;;42.05;;
31336;SDS011;22846;42.654;23.314;2022-09-14T06:06:00;45.67;;;31.95;;
31336;SDS011;22846;42.654;23.314;2022-09-14T06:08:27;37.65;;;27.25;;
31336;SDS011;22846;42.654;23.314;2022-09-14T06:10:53;35.45;;;25.80;;
31336;SDS011;22846;42.654;23.314;2022-09-14T06:13:18;32.55;;;24.52;;
31336;SDS011;22846;42.654;23.314;2022-09-14T06:15:43;35.25;;;24.02;;
31336;SDS011;22846;42.654;23.314;2022-09-14T06:18:09;35.65;;;25.30;;
31336;SDS011;22846;42.654;23.314;2022-09-14T06:20:34;34.20;;;24.92;;
31336;SDS011;22846;42.654;23.314;2022-09-14T06:23:00;32.63;;;23.83;;
31336;SDS011;22846;42.654;23.314;2022-09-14T06:25:25;38.78;;;24.25;;
31336;SDS011;22846;42.654;23.314;2022-09-14T06:27:52;32.03;;;23.73;;
31336;SDS011;22846;42.654;23.314;2022-09-14T06:30:19;29.73;;;20.75;;
31336;SDS011;22846;42.654;23.314;2022-09-14T06:32:44;28.08;;;21.52;;
31336;SDS011;22846;42.654;23.314;2022-09-14T06:35:10;27.23;;;20.73;;
31336;SDS011;22846;42.654;23.314;2022-09-14T06:37:35;26.17;;;20.05;;
31336;SDS011;22846;42.654;23.314;2022-09-14T06:40:01;26.70;;;19.27;;
31336;SDS011;22846;42.654;23.314;2022-09-14T06:42:28;25.55;;;19.08;;
31336;SDS011;22846;42.654;23.314;2022-09-14T06:44:54;25.08;;;18.92;;
31336;SDS011;22846;42.654;23.314;2022-09-14T06:47:19;28.27;;;20.05;;
31336;SDS011;22846;42.654;23.314;2022-09-14T06:49:45;22.85;;;17.83;;
31336;SDS011;22846;42.654;23.314;2022-09-14T06:52:10;27.00;;;18.20;;
31336;SDS011;22846;42.654;23.314;2022-09-14T06:54:36;23.58;;;17.50;;
31336;SDS011;22846;42.654;23.314;2022-09-14T06:57:01;22.75;;;17.60;;
31336;SDS011;22846;42.654;23.314;2022-09-14T06:59:27;22.13;;;16.40;;
31336;SDS011;22846;42.654;23.314;2022-09-14T07:01:52;21.42;;;16.38;;
31336;SDS011;22846;42.654;23.314;2022-09-14T07:04:18;23.02;;;16.52;;
31336;SDS011;22846;42.654;23.314;2022-09-14T07:06:44;22.17;;;15.60;;
31336;SDS011;22846;42.654;23.314;2022-09-14T07:09:11;20.13;;;14.85;;
31336;SDS011;22846;42.654;23.314;2022-09-14T07:11:38;21.67;;;14.30;;
31336;SDS011;22846;42.654;23.314;2022-09-14T07:14:04;19.80;;;14.60;;
31336;SDS011;22846;42.654;23.314;2022-09-14T07:16:32;20.70;;;14.48;;
31336;SDS011;22846;42.654;23.314;2022-09-14T07:18:59;19.27;;;13.77;;
31336;SDS011;22846;42.654;23.314;2022-09-14T07:21:26;18.45;;;13.43;;
31336;SDS011;22846;42.654;23.314;2022-09-14T07:23:53;29.73;;;13.50;;
31336;SDS011;22846;42.654;23.314;2022-09-14T07:26:21;17.42;;;13.38;;
31336;SDS011;22846;42.654;23.314;2022-09-14T07:28:54;16.92;;;12.25;;
31336;SDS011;22846;42.654;23.314;2022-09-14T07:31:26;17.65;;;12.50;;
31336;SDS011;22846;42.654;23.314;2022-09-14T07:33:57;15.32;;;11.73;;
31336;SDS011;22846;42.654;23.314;2022-09-14T07:36:24;15.82;;;11.50;;
31336;SDS011;22846;42.654;23.314;2022-09-14T07:38:51;15.10;;;11.40;;
31336;SDS011;22846;42.654;23.314;2022-09-14T07:41:17;13.35;;;10.70;;
31336;SDS011;22846;42.654;23.314;2022-09-14T07:43:46;16.30;;;11.18;;
31336;SDS011;22846;42.654;23.314;2022-09-14T07:46:13;14.55;;;10.77;;
31336;SDS011;22846;42.654;23.314;2022-09-14T07:48:38;12.35;;;10.13;;
31336;SDS011;22846;42.654;23.314;2022-09-14T07:51:05;13.35;;;9.70;;
31336;SDS011;22846;42.654;23.314;2022-09-14T07:53:34;12.38;;;9.48;;
31336;SDS011;22846;42.654;23.314;2022-09-14T07:56:03;12.90;;;9.95;;
31336;SDS011;22846;42.654;23.314;2022-09-14T07:58:30;12.52;;;9.52;;
31336;SDS011;22846;42.654;23.314;2022-09-14T08:01:02;14.27;;;9.77;;
31336;SDS011;22846;42.654;23.314;2022-09-14T08:03:29;11.25;;;8.80;;
31336;SDS011;22846;42.654;23.314;2022-09-14T08:06:03;10.55;;;8.65;;
31336;SDS011;22846;42.654;23.314;2022-09-14T08:08:34;10.75;;;8.80;;
31336;SDS011;22846;42.654;23.314;2022-09-14T08:11:05;11.25;;;8.55;;
31336;SDS011;22846;42.654;23.314;2022-09-14T08:13:36;10.98;;;8.45;;
31336;SDS011;22846;42.654;23.314;2022-09-14T08:16:03;12.40;;;8.60;;
31336;SDS011;22846;42.654;23.314;2022-09-14T08:18:30;8.77;;;7.78;;
31336;SDS011;22846;42.654;23.314;2022-09-14T08:21:01;9.40;;;7.55;;
31336;SDS011;22846;42.654;23.314;2022-09-14T08:23:30;8.50;;;7.35;;
31336;SDS011;22846;42.654;23.314;2022-09-14T08:25:55;10.98;;;7.75;;
31336;SDS011;22846;42.654;23.314;2022-09-14T08:28:25;9.48;;;7.47;;
31336;SDS011;22846;42.654;23.314;2022-09-14T08:30:50;9.88;;;7.85;;
31336;SDS011;22846;42.654;23.314;2022-09-14T08:33:16;9.93;;;7.97;;
31336;SDS011;22846;42.654;23.314;2022-09-14T08:35:42;10.50;;;7.63;;
31336;SDS011;22846;42.654;23.314;2022-09-14T08:38:08;9.32;;;7.28;;
31336;SDS011;22846;42.654;23.314;2022-09-14T08:40:34;10.32;;;7.93;;
31336;SDS011;22846;42.654;23.314;2022-09-14T08:43:07;9.00;;;6.95;;
31336;SDS011;22846;42.654;23.314;2022-09-14T08:45:37;9.25;;;7.40;;
31336;SDS011;22846;42.654;23.314;2022-09-14T08:48:10;9.05;;;7.22;;
31336;SDS011;22846;42.654;23.314;2022-09-14T08:50:52;7.97;;;6.65;;
31336;SDS011;22846;42.654;23.314;2022-09-14T08:53:21;7.53;;;6.60;;
31336;SDS011;22846;42.654;23.314;2022-09-14T08:55:50;8.85;;;7.05;;
31336;SDS011;22846;42.654;23.314;2022-09-14T09:09:52;8.02;;;6.40;;
31336;SDS011;22846;42.654;23.314;2022-09-14T09:12:28;7.72;;;6.13;;
31336;SDS011;22846;42.654;23.314;2022-09-14T09:14:59;7.20;;;5.65;;
31336;SDS011;22846;42.654;23.314;2022-09-14T09:17:38;8.20;;;5.90;;
31336;SDS011;22846;42.654;23.314;2022-09-14T09:20:11;6.97;;;5.90;;
31336;SDS011;22846;42.654;23.314;2022-09-14T09:22:49;5.90;;;5.28;;
31336;SDS011;22846;42.654;23.314;2022-09-14T09:25:23;6.82;;;5.72;;
31336;SDS011;22846;42.654;23.314;2022-09-14T09:27:59;7.15;;;4.97;;
31336;SDS011;22846;42.654;23.314;2022-09-14T09:30:27;7.03;;;5.50;;
31336;SDS011;22846;42.654;23.314;2022-09-14T09:32:53;6.63;;;4.70;;
31336;SDS011;22846;42.654;23.314;2022-09-14T09:35:21;4.95;;;4.45;;
31336;SDS011;22846;42.654;23.314;2022-09-14T09:37:48;5.95;;;5.10;;
31336;SDS011;22846;42.654;23.314;2022-09-14T09:40:16;5.68;;;5.00;;
31336;SDS011;22846;42.654;23.314;2022-09-14T09:48:13;6.80;;;4.85;;
31336;SDS011;22846;42.654;23.314;2022-09-14T09:51:15;6.20;;;4.80;;
31336;SDS011;22846;42.654;23.314;2022-09-14T09:53:36;5.10;;;4.40;;
31336;SDS011;22846;42.654;23.314;2022-09-14T09:56:15;5.30;;;4.43;;
31336;SDS011;22846;42.654;23.314;2022-09-14T09:58:42;5.70;;;4.53;;
31336;SDS011;22846;42.654;23.314;2022-09-14T10:01:18;6.03;;;4.68;;
31336;SDS011;22846;42.654;23.314;2022-09-14T10:03:59;4.65;;;3.75;;
31336;SDS011;22846;42.654;23.314;2022-09-14T10:06:26;5.93;;;4.22;;
31336;SDS011;22846;42.654;23.314;2022-09-14T10:08:51;5.45;;;3.92;;
31336;SDS011;22846;42.654;23.314;2022-09-14T10:13:55;4.63;;;4.05;;
31336;SDS011;22846;42.654;23.314;2022-09-14T10:16:21;5.25;;;4.05;;
31336;SDS011;22846;42.654;23.314;2022-09-14T10:18:50;5.47;;;4.20;;
31336;SDS011;22846;42.654;23.314;2022-09-14T10:21:20;4.60;;;4.07;;
31336;SDS011;22846;42.654;23.314;2022-09-14T10:32:06;4.30;;;3.33;;
31336;SDS011;22846;42.654;23.314;2022-09-14T10:34:41;5.13;;;3.53;;
31336;SDS011;22846;42.654;23.314;2022-09-14T10:43:02;3.65;;;2.90;;
31336;SDS011;22846;42.654;23.314;2022-09-14T10:45:40;4.28;;;3.55;;
31336;SDS011;22846;42.654;23.314;2022-09-14T10:50:53;4.07;;;3.03;;
31336;SDS011;22846;42.654;23.314;2022-09-14T10:53:36;3.15;;;2.85;;
31336;SDS011;22846;42.654;23.314;2022-09-14T11:01:47;4.38;;;3.22;;
31336;SDS011;22846;42.654;23.314;2022-09-14T11:20:51;4.60;;;3.00;;
31336;SDS011;22846;42.654;23.314;2022-09-14T11:26:14;3.13;;;2.53;;
31336;SDS011;22846;42.654;23.314;2022-09-14T11:37:02;4.97;;;2.80;;
31336;SDS011;22846;42.654;23.314;2022-09-14T11:39:36;3.63;;;2.70;;
31336;SDS011;22846;42.654;23.314;2022-09-14T11:42:08;3.50;;;2.67;;
31336;SDS011;22846;42.654;23.314;2022-09-14T11:47:57;4.20;;;2.80;;
31336;SDS011;22846;42.654;23.314;2022-09-14T11:50:29;4.15;;;2.55;;
31336;SDS011;22846;42.654;23.314;2022-09-14T11:53:00;4.90;;;2.47;;
31336;SDS011;22846;42.654;23.314;2022-09-14T11:55:28;5.72;;;2.60;;
31336;SDS011;22846;42.654;23.314;2022-09-14T11:57:55;5.18;;;2.60;;
31336;SDS011;22846;42.654;23.314;2022-09-14T12:05:30;3.83;;;2.50;;
31336;SDS011;22846;42.654;23.314;2022-09-14T12:07:57;4.78;;;2.50;;
31336;SDS011;22846;42.654;23.314;2022-09-14T12:10:24;5.03;;;2.60;;
31336;SDS011;22846;42.654;23.314;2022-09-14T12:18:12;4.63;;;2.47;;
31336;SDS011;22846;42.654;23.314;2022-09-14T12:20:42;3.45;;;2.25;;
31336;SDS011;22846;42.654;23.314;2022-09-14T12:29:06;3.92;;;2.20;;
31336;SDS011;22846;42.654;23.314;2022-09-14T12:31:28;10.23;;;2.53;;
31336;SDS011;22846;42.654;23.314;2022-09-14T12:34:13;11.80;;;3.03;;
31336;SDS011;22846;42.654;23.314;2022-09-14T12:39:27;16.92;;;2.95;;
31336;SDS011;22846;42.654;23.314;2022-09-14T12:44:36;7.20;;;2.30;;
31336;SDS011;22846;42.654;23.314;2022-09-14T12:47:36;13.90;;;2.65;;
31336;SDS011;22846;42.654;23.314;2022-09-14T12:50:03;9.80;;;2.30;;
31336;SDS011;22846;42.654;23.314;2022-09-14T12:58:03;15.38;;;6.70;;
31336;SDS011;22846;42.654;23.314;2022-09-14T13:05:48;17.10;;;6.93;;
31336;SDS011;22846;42.654;23.314;2022-09-14T13:08:16;9.85;;;5.80;;
31336;SDS011;22846;42.654;23.314;2022-09-14T13:10:48;11.30;;;5.13;;
31336;SDS011;22846;42.654;23.314;2022-09-14T13:13:28;8.88;;;5.03;;
31336;SDS011;22846;42.654;23.314;2022-09-14T13:16:00;8.93;;;4.20;;
31336;SDS011;22846;42.654;23.314;2022-09-14T13:20:59;8.27;;;3.22;;
31336;SDS011;22846;42.654;23.314;2022-09-14T13:23:36;6.28;;;2.90;;
31336;SDS011;22846;42.654;23.314;2022-09-14T13:26:09;5.50;;;2.65;;
31336;SDS011;22846;42.654;23.314;2022-09-14T13:28:42;13.43;;;3.63;;
31336;SDS011;22846;42.654;23.314;2022-09-14T13:31:11;6.93;;;2.80;;
31336;SDS011;22846;42.654;23.314;2022-09-14T13:33:45;9.93;;;3.25;;
31336;SDS011;22846;42.654;23.314;2022-09-14T13:36:14;6.68;;;2.78;;
31336;SDS011;22846;42.654;23.314;2022-09-14T13:38:42;16.13;;;10.00;;
31336;SDS011;22846;42.654;23.314;2022-09-14T13:41:09;15.75;;;7.45;;
31336;SDS011;22846;42.654;23.314;2022-09-14T13:43:38;13.65;;;6.53;;
31336;SDS011;22846;42.654;23.314;2022-09-14T13:46:06;17.67;;;6.43;;
31336;SDS011;22846;42.654;23.314;2022-09-14T13:48:32;13.05;;;5.68;;
31336;SDS011;22846;42.654;23.314;2022-09-14T13:51:00;6.35;;;4.65;;
31336;SDS011;22846;42.654;23.314;2022-09-14T13:56:16;9.73;;;4.32;;
31336;SDS011;22846;42.654;23.314;2022-09-14T13:58:41;11.05;;;3.88;;
31336;SDS011;22846;42.654;23.314;2022-09-14T14:01:07;6.35;;;3.25;;
31336;SDS011;22846;42.654;23.314;2022-09-14T14:03:40;5.32;;;3.85;;
31336;SDS011;22846;42.654;23.314;2022-09-14T14:06:22;6.65;;;3.45;;
31336;SDS011;22846;42.654;23.314;2022-09-14T14:11:33;6.03;;;2.90;;
31336;SDS011;22846;42.654;23.314;2022-09-14T14:14:09;5.05;;;2.50;;
31336;SDS011;22846;42.654;23.314;2022-09-14T14:19:45;3.40;;;2.83;;
31336;SDS011;22846;42.654;23.314;2022-09-14T14:24:43;4.63;;;2.50;;
31336;SDS011;22846;42.654;23.314;2022-09-14T14:27:30;4.82;;;2.30;;
31336;SDS011;22846;42.654;23.314;2022-09-14T14:29:58;3.40;;;2.28;;
31336;SDS011;22846;42.654;23.314;2022-09-14T14:32:25;5.90;;;2.40;;
31336;SDS011;22846;42.654;23.314;2022-09-14T14:34:52;4.18;;;2.50;;
31336;SDS011;22846;42.654;23.314;2022-09-14T14:37:18;4.82;;;2.17;;
31336;SDS011;22846;42.654;23.314;2022-09-14T14:39:44;5.38;;;2.10;;
31336;SDS011;22846;42.654;23.314;2022-09-14T14:42:10;7.00;;;2.50;;
31336;SDS011;22846;42.654;23.314;2022-09-14T14:44:37;5.18;;;2.00;;
31336;SDS011;22846;42.654;23.314;2022-09-14T14:47:04;5.90;;;2.38;;
31336;SDS011;22846;42.654;23.314;2022-09-14T14:49:30;5.25;;;2.28;;
31336;SDS011;22846;42.654;23.314;2022-09-14T14:51:56;3.38;;;2.17;;
31336;SDS011;22846;42.654;23.314;2022-09-14T14:54:21;4.80;;;2.38;;
31336;SDS011;22846;42.654;23.314;2022-09-14T14:56:47;2.97;;;1.90;;
31336;SDS011;22846;42.654;23.314;2022-09-14T14:59:15;3.92;;;2.08;;
31336;SDS011;22846;42.654;23.314;2022-09-14T15:01:46;3.10;;;2.03;;
31336;SDS011;22846;42.654;23.314;2022-09-14T15:04:13;3.90;;;2.05;;
31336;SDS011;22846;42.654;23.314;2022-09-14T15:06:38;4.50;;;2.20;;
31336;SDS011;22846;42.654;23.314;2022-09-14T15:09:05;3.13;;;2.10;;
31336;SDS011;22846;42.654;23.314;2022-09-14T15:11:36;3.97;;;1.80;;
31336;SDS011;22846;42.654;23.314;2022-09-14T15:14:02;2.88;;;1.58;;
31336;SDS011;22846;42.654;23.314;2022-09-14T15:16:29;3.40;;;1.70;;
31336;SDS011;22846;42.654;23.314;2022-09-14T15:18:54;2.28;;;1.85;;
31336;SDS011;22846;42.654;23.314;2022-09-14T15:21:20;3.72;;;1.75;;
31336;SDS011;22846;42.654;23.314;2022-09-14T15:23:45;2.90;;;1.80;;
31336;SDS011;22846;42.654;23.314;2022-09-14T15:26:12;3.85;;;1.90;;
31336;SDS011;22846;42.654;23.314;2022-09-14T15:28:37;2.97;;;1.60;;
31336;SDS011;22846;42.654;23.314;2022-09-14T15:31:04;2.65;;;1.70;;
31336;SDS011;22846;42.654;23.314;2022-09-14T15:33:30;6.68;;;1.80;;
31336;SDS011;22846;42.654;23.314;2022-09-14T15:35:56;3.42;;;1.70;;
31336;SDS011;22846;42.654;23.314;2022-09-14T15:38:22;2.42;;;1.55;;
31336;SDS011;22846;42.654;23.314;2022-09-14T15:40:48;2.97;;;1.45;;
31336;SDS011;22846;42.654;23.314;2022-09-14T15:43:14;2.25;;;1.50;;
31336;SDS011;22846;42.654;23.314;2022-09-14T15:45:39;2.58;;;1.70;;
31336;SDS011;22846;42.654;23.314;2022-09-14T15:48:07;2.75;;;1.40;;
31336;SDS011;22846;42.654;23.314;2022-09-14T15:50:39;2.55;;;1.67;;
31336;SDS011;22846;42.654;23.314;2022-09-14T15:53:05;1.95;;;1.48;;
31336;SDS011;22846;42.654;23.314;2022-09-14T15:55:31;4.10;;;1.73;;
31336;SDS011;22846;42.654;23.314;2022-09-14T15:57:56;3.67;;;1.75;;
31336;SDS011;22846;42.654;23.314;2022-09-14T16:00:21;4.38;;;1.63;;
31336;SDS011;22846;42.654;23.314;2022-09-14T16:02:49;4.05;;;1.83;;
31336;SDS011;22846;42.654;23.314;2022-09-14T16:05:15;3.72;;;1.85;;
31336;SDS011;22846;42.654;23.314;2022-09-14T16:07:42;3.28;;;1.83;;
31336;SDS011;22846;42.654;23.314;2022-09-14T16:10:08;4.70;;;1.90;;
31336;SDS011;22846;42.654;23.314;2022-09-14T16:12:34;3.90;;;1.80;;
31336;SDS011;22846;42.654;23.314;2022-09-14T16:14:59;6.95;;;1.67;;
31336;SDS011;22846;42.654;23.314;2022-09-14T16:17:24;10.70;;;2.00;;
31336;SDS011;22846;42.654;23.314;2022-09-14T16:19:50;13.23;;;1.98;;
31336;SDS011;22846;42.654;23.314;2022-09-14T16:22:15;6.63;;;1.95;;
31336;SDS011;22846;42.654;23.314;2022-09-14T16:24:41;6.78;;;2.13;;
31336;SDS011;22846;42.654;23.314;2022-09-14T16:27:06;8.65;;;2.20;;
31336;SDS011;22846;42.654;23.314;2022-09-14T16:29:32;13.90;;;2.50;;
31336;SDS011;22846;42.654;23.314;2022-09-14T16:31:57;13.00;;;2.80;;
31336;SDS011;22846;42.654;23.314;2022-09-14T16:34:24;26.63;;;3.50;;
31336;SDS011;22846;42.654;23.314;2022-09-14T16:36:51;9.55;;;2.85;;
31336;SDS011;22846;42.654;23.314;2022-09-14T16:39:21;12.75;;;3.33;;
31336;SDS011;22846;42.654;23.314;2022-09-14T16:41:48;13.43;;;3.20;;
31336;SDS011;22846;42.654;23.314;2022-09-14T16:44:15;11.85;;;2.72;;
31336;SDS011;22846;42.654;23.314;2022-09-14T16:46:42;6.00;;;2.20;;
31336;SDS011;22846;42.654;23.314;2022-09-14T16:49:08;11.15;;;2.47;;
31336;SDS011;22846;42.654;23.314;2022-09-14T16:51:34;20.85;;;3.20;;
31336;SDS011;22846;42.654;23.314;2022-09-14T16:54:00;10.52;;;2.50;;
31336;SDS011;22846;42.654;23.314;2022-09-14T16:56:27;15.05;;;3.00;;
31336;SDS011;22846;42.654;23.314;2022-09-14T16:58:55;12.05;;;3.60;;
31336;SDS011;22846;42.654;23.314;2022-09-14T17:01:23;11.05;;;3.10;;
31336;SDS011;22846;42.654;23.314;2022-09-14T17:03:52;11.98;;;3.08;;
31336;SDS011;22846;42.654;23.314;2022-09-14T17:06:20;7.35;;;2.35;;